< < Back
Terminal Aerodrome Forecast


Current Version              Previous Versions:   1  2  3  4  5  6  7  8  9  

Terminal Aerodrome Forecast

669
FTUS44 KBMX 232320
TAFMGM
TAF
KMGM 232320Z 2400/2424 VRB03KT P6SM FEW250=



Latest METAR

806
SAUS80 KWBC 241300 RRA
MTRMGM
METAR KMGM 241253Z 00000KT 10SM CLR 21/16 A3013 RMK AO2 SLP199
T02110161


USA.gov is the U.S. government's official web portal to all federal, state and local government web resources and services.